createdAt,value
2022-12-31T00:00:30.607Z,4.11
2022-12-31T00:03:46.571Z,4.14
2022-12-31T00:06:55.260Z,4.09
2022-12-31T00:10:11.615Z,4.08
2022-12-31T00:13:26.554Z,4.12
2022-12-31T00:16:49.671Z,4.14
2022-12-31T00:20:04.597Z,4.19
2022-12-31T00:23:20.605Z,4.14
2022-12-31T00:26:37.865Z,4.10
2022-12-31T00:29:52.590Z,4.13
2022-12-31T00:33:07.598Z,4.14
2022-12-31T00:36:15.954Z,4.15
2022-12-31T00:39:30.569Z,4.18
2022-12-31T00:42:32.540Z,4.21
2022-12-31T00:45:47.579Z,4.17
2022-12-31T00:48:56.591Z,4.12
2022-12-31T00:52:05.647Z,4.17
2022-12-31T00:55:20.576Z,4.12
2022-12-31T00:58:22.718Z,4.14
2022-12-31T01:01:44.706Z,4.13
2022-12-31T01:04:59.558Z,4.12
2022-12-31T01:08:02.191Z,4.05
2022-12-31T01:11:19.593Z,4.11
2022-12-31T01:14:28.210Z,4.13
2022-12-31T01:17:43.574Z,4.13
2022-12-31T01:20:58.575Z,4.11
2022-12-31T01:24:07.578Z,4.12
2022-12-31T01:27:16.232Z,4.12
2022-12-31T01:30:25.574Z,4.12
2022-12-31T01:33:41.601Z,4.17
2022-12-31T01:36:50.301Z,4.21
2022-12-31T01:39:58.585Z,4.20
2022-12-31T01:43:26.580Z,4.21
2022-12-31T01:46:44.587Z,4.25
2022-12-31T01:50:00.449Z,4.24
2022-12-31T01:53:11.583Z,4.29
2022-12-31T01:56:22.836Z,4.30
2022-12-31T01:59:34.592Z,4.19
2022-12-31T02:02:43.489Z,4.27
2022-12-31T02:06:01.585Z,4.19
2022-12-31T02:09:18.576Z,4.26
2022-12-31T02:12:33.569Z,4.17
2022-12-31T02:16:09.657Z,4.33
2022-12-31T02:20:02.571Z,4.33
2022-12-31T02:23:16.861Z,4.30
2022-12-31T02:26:50.556Z,4.34
2022-12-31T02:30:10.543Z,4.36
2022-12-31T02:33:41.583Z,4.34
2022-12-31T02:36:52.799Z,4.37
2022-12-31T02:40:01.567Z,4.34
2022-12-31T02:43:16.545Z,4.31
2022-12-31T02:46:44.572Z,4.36
2022-12-31T02:50:18.551Z,4.36
2022-12-31T02:53:33.990Z,4.36
2022-12-31T02:57:23.572Z,4.36
2022-12-31T03:00:36.427Z,4.34
2022-12-31T03:03:45.577Z,4.35
2022-12-31T03:06:54.624Z,4.37
2022-12-31T03:10:09.570Z,4.37
2022-12-31T03:13:11.663Z,4.38
2022-12-31T03:16:26.625Z,4.37
2022-12-31T03:19:34.852Z,4.41
2022-12-31T03:22:50.571Z,4.41
2022-12-31T03:26:07.560Z,4.42
2022-12-31T03:29:09.616Z,4.40
2022-12-31T03:32:24.576Z,4.38
2022-12-31T03:35:27.976Z,4.37
2022-12-31T03:38:44.760Z,4.36
2022-12-31T03:41:50.092Z,4.40
2022-12-31T03:45:04.579Z,4.43
2022-12-31T03:48:19.559Z,4.44
2022-12-31T03:51:21.685Z,4.46
2022-12-31T03:54:36.551Z,4.49
2022-12-31T03:57:45.453Z,4.46
2022-12-31T04:00:53.635Z,4.36
2022-12-31T04:04:08.593Z,4.47
2022-12-31T04:07:10.663Z,4.49
2022-12-31T04:10:26.619Z,4.50
2022-12-31T04:13:35.279Z,4.50
2022-12-31T04:16:44.624Z,4.53
2022-12-31T04:20:06.619Z,4.53
2022-12-31T04:23:08.663Z,4.53
2022-12-31T04:26:23.558Z,4.54
2022-12-31T04:29:32.533Z,4.53
2022-12-31T04:32:41.559Z,4.56
2022-12-31T04:35:56.608Z,4.57
2022-12-31T04:39:05.540Z,4.58
2022-12-31T04:42:20.565Z,4.58
2022-12-31T04:45:42.565Z,4.51
2022-12-31T04:48:51.563Z,4.57
2022-12-31T04:52:06.563Z,4.58
2022-12-31T04:55:08.715Z,4.58
2022-12-31T04:58:24.573Z,4.59
2022-12-31T05:01:33.872Z,4.54
2022-12-31T05:04:48.544Z,4.55
2022-12-31T05:07:57.578Z,4.55
2022-12-31T05:11:06.313Z,4.56
2022-12-31T05:14:14.587Z,4.55
2022-12-31T05:17:36.559Z,4.56
2022-12-31T05:20:46.088Z,4.55
2022-12-31T05:24:00.570Z,4.56
2022-12-31T05:27:09.297Z,4.58
2022-12-31T05:30:18.564Z,4.60
2022-12-31T05:33:33.596Z,4.59
2022-12-31T05:36:35.561Z,4.60
2022-12-31T05:39:50.581Z,4.60
2022-12-31T05:42:59.254Z,4.61
2022-12-31T05:46:11.607Z,4.61
2022-12-31T05:49:20.465Z,4.62
2022-12-31T05:52:36.987Z,4.61
2022-12-31T05:55:54.563Z,4.59
2022-12-31T05:59:09.571Z,4.61
2022-12-31T06:02:18.261Z,4.63
2022-12-31T06:05:26.852Z,4.64
2022-12-31T06:08:41.582Z,4.65
2022-12-31T06:11:44.209Z,4.61
2022-12-31T06:14:59.575Z,4.59
2022-12-31T06:18:14.849Z,4.62
2022-12-31T06:21:29.569Z,4.62
2022-12-31T06:24:38.537Z,4.63
2022-12-31T06:27:47.328Z,4.62
2022-12-31T06:30:55.586Z,4.62
2022-12-31T06:34:10.564Z,4.63
2022-12-31T06:37:25.540Z,4.63
2022-12-31T06:40:37.551Z,4.60
2022-12-31T06:43:46.547Z,4.56
2022-12-31T06:47:01.556Z,4.61
2022-12-31T06:50:16.547Z,4.65
2022-12-31T06:53:25.471Z,4.67
2022-12-31T06:56:40.567Z,4.62
2022-12-31T06:59:56.566Z,4.68
2022-12-31T07:04:00.539Z,4.66
2022-12-31T07:07:33.739Z,4.65
2022-12-31T07:10:42.541Z,4.63
2022-12-31T07:14:29.530Z,4.61
2022-12-31T07:17:34.581Z,4.63
2022-12-31T07:20:50.550Z,4.66
2022-12-31T07:23:59.816Z,4.68
2022-12-31T07:27:40.542Z,4.69
2022-12-31T07:31:19.644Z,4.69
2022-12-31T07:35:02.575Z,4.71
2022-12-31T07:39:05.609Z,4.73
2022-12-31T07:42:30.566Z,4.65
2022-12-31T07:45:48.258Z,4.62
2022-12-31T07:49:04.554Z,4.64
2022-12-31T07:52:13.791Z,4.54
2022-12-31T07:55:29.558Z,4.64
2022-12-31T07:58:44.212Z,4.68
2022-12-31T08:01:55.632Z,4.71
2022-12-31T08:05:06.821Z,4.76
2022-12-31T08:08:50.549Z,4.80
2022-12-31T08:12:02.351Z,4.85
2022-12-31T08:15:29.995Z,4.89
2022-12-31T08:18:45.566Z,4.95
2022-12-31T08:22:03.157Z,4.99
2022-12-31T08:25:34.556Z,5.04
2022-12-31T08:29:12.596Z,5.14
2022-12-31T08:32:24.845Z,5.21
2022-12-31T08:35:58.544Z,5.28
2022-12-31T08:39:27.540Z,5.37
2022-12-31T08:43:18.648Z,5.40
2022-12-31T08:46:58.538Z,5.50
2022-12-31T08:50:13.864Z,5.59
2022-12-31T08:53:29.525Z,5.65
2022-12-31T08:57:05.567Z,5.72
2022-12-31T09:00:19.877Z,5.83
2022-12-31T09:03:31.538Z,5.92
2022-12-31T09:07:02.266Z,6.03
2022-12-31T09:10:30.539Z,6.13
2022-12-31T09:14:07.541Z,6.19
2022-12-31T09:17:44.213Z,6.23
2022-12-31T09:20:53.541Z,6.20
2022-12-31T09:24:08.999Z,6.23
2022-12-31T09:27:35.569Z,6.23
2022-12-31T09:31:33.580Z,6.26
2022-12-31T09:34:58.606Z,6.32
2022-12-31T09:38:09.577Z,6.34
2022-12-31T09:41:35.554Z,6.33
2022-12-31T09:45:16.486Z,6.32
2022-12-31T09:48:47.174Z,6.39
2022-12-31T09:52:20.637Z,6.41
2022-12-31T09:56:11.543Z,6.36
2022-12-31T09:59:55.884Z,6.42
2022-12-31T10:03:20.580Z,6.53
2022-12-31T10:06:54.579Z,6.62
2022-12-31T10:10:05.770Z,6.66
2022-12-31T10:13:33.581Z,6.69
2022-12-31T10:17:22.533Z,6.70
2022-12-31T10:21:17.545Z,6.72
2022-12-31T10:24:45.780Z,6.76
2022-12-31T10:28:12.614Z,6.76
2022-12-31T10:31:55.508Z,6.79
2022-12-31T10:35:13.590Z,6.80
2022-12-31T10:39:00.543Z,6.78
2022-12-31T10:42:40.150Z,6.80
2022-12-31T10:46:30.610Z,6.79
2022-12-31T10:50:00.539Z,6.83
2022-12-31T10:53:36.579Z,6.80
2022-12-31T10:57:50.569Z,6.84
2022-12-31T11:01:14.472Z,6.81
2022-12-31T11:04:48.530Z,6.79
2022-12-31T11:08:02.803Z,6.81
2022-12-31T11:11:51.535Z,6.79
2022-12-31T11:15:27.570Z,6.74
2022-12-31T11:18:51.050Z,6.73
2022-12-31T11:22:17.531Z,6.76
2022-12-31T11:26:14.525Z,6.77
2022-12-31T11:29:54.547Z,6.79
2022-12-31T11:33:11.278Z,6.81
2022-12-31T11:36:57.545Z,6.84
2022-12-31T11:40:12.543Z,6.77
2022-12-31T11:43:51.523Z,6.82
2022-12-31T11:47:19.650Z,6.81
2022-12-31T11:50:34.521Z,6.83
2022-12-31T11:53:58.535Z,6.85
2022-12-31T11:57:21.561Z,6.88
2022-12-31T12:00:32.345Z,6.84
2022-12-31T12:03:40.558Z,6.89
2022-12-31T12:06:49.324Z,6.92
2022-12-31T12:10:01.543Z,6.94
2022-12-31T12:13:27.540Z,6.98
2022-12-31T12:16:49.533Z,7.00
2022-12-31T12:20:09.555Z,7.04
2022-12-31T12:23:25.667Z,7.09
2022-12-31T12:26:41.591Z,7.13
2022-12-31T12:29:50.350Z,7.15
2022-12-31T12:33:08.513Z,7.13
2022-12-31T12:36:19.488Z,7.18
2022-12-31T12:39:30.539Z,7.20
2022-12-31T12:42:56.546Z,7.21
2022-12-31T12:46:21.903Z,7.21
2022-12-31T12:49:45.547Z,7.33
2022-12-31T12:53:29.523Z,7.27
2022-12-31T12:57:08.524Z,7.32
2022-12-31T13:00:27.533Z,7.34
2022-12-31T13:03:48.656Z,7.39
2022-12-31T13:07:22.498Z,7.45
2022-12-31T13:10:57.574Z,7.49
2022-12-31T13:14:31.139Z,7.51
2022-12-31T13:18:25.524Z,7.52
2022-12-31T13:21:48.556Z,7.59
2022-12-31T13:25:24.623Z,7.62
2022-12-31T13:28:42.554Z,7.62
2022-12-31T13:31:45.833Z,7.63
2022-12-31T13:35:04.518Z,7.64
2022-12-31T13:39:08.513Z,7.65
2022-12-31T13:42:39.387Z,7.65
2022-12-31T13:46:07.529Z,7.62
2022-12-31T13:49:31.612Z,7.57
2022-12-31T13:52:46.370Z,7.51
2022-12-31T13:56:02.510Z,7.50
2022-12-31T13:59:49.522Z,7.50
2022-12-31T14:03:27.541Z,7.46
2022-12-31T14:06:56.489Z,7.44
2022-12-31T14:10:19.523Z,7.47
2022-12-31T14:13:46.959Z,7.51
2022-12-31T14:17:16.529Z,7.50
2022-12-31T14:20:55.960Z,7.53
2022-12-31T14:24:21.507Z,7.56
2022-12-31T14:27:42.524Z,7.56
2022-12-31T14:31:09.675Z,7.58
2022-12-31T14:34:42.543Z,7.60
2022-12-31T14:38:18.621Z,7.57
2022-12-31T14:41:55.515Z,7.55
2022-12-31T14:45:17.589Z,7.53
2022-12-31T14:48:35.552Z,7.52
2022-12-31T14:51:44.210Z,7.48
2022-12-31T14:55:03.601Z,7.50
2022-12-31T14:58:37.509Z,7.49
2022-12-31T15:01:53.592Z,7.42
2022-12-31T15:05:33.526Z,7.42
2022-12-31T15:08:54.379Z,7.40
2022-12-31T15:12:21.515Z,7.39
2022-12-31T15:16:18.583Z,7.39
2022-12-31T15:19:50.892Z,7.36
2022-12-31T15:23:05.537Z,7.34
2022-12-31T15:26:28.633Z,7.34
2022-12-31T15:29:48.494Z,7.35
2022-12-31T15:33:07.508Z,7.34
2022-12-31T15:36:28.506Z,7.37
2022-12-31T15:39:47.528Z,7.36
2022-12-31T15:43:30.665Z,7.34
2022-12-31T15:46:49.515Z,7.35
2022-12-31T15:50:12.424Z,7.32
2022-12-31T15:53:40.513Z,7.33
2022-12-31T15:56:52.515Z,7.33
2022-12-31T16:00:06.056Z,7.31
2022-12-31T16:03:27.526Z,7.33
2022-12-31T16:06:50.462Z,7.32
2022-12-31T16:10:08.548Z,7.35
2022-12-31T16:13:20.202Z,7.32
2022-12-31T16:16:38.511Z,7.29
2022-12-31T16:20:00.538Z,7.29
2022-12-31T16:23:24.603Z,7.28
2022-12-31T16:26:40.514Z,7.24
2022-12-31T16:30:03.499Z,7.20
2022-12-31T16:33:21.520Z,7.19
2022-12-31T16:36:36.499Z,7.15
2022-12-31T16:39:53.256Z,7.09
2022-12-31T16:43:08.504Z,7.04
2022-12-31T16:46:14.681Z,6.96
2022-12-31T16:49:30.498Z,6.79
2022-12-31T16:52:50.439Z,6.77
2022-12-31T16:56:15.524Z,6.70
2022-12-31T16:59:35.851Z,6.62
2022-12-31T17:02:53.624Z,6.59
2022-12-31T17:06:14.515Z,6.55
2022-12-31T17:09:25.527Z,6.50
2022-12-31T17:12:53.063Z,6.46
2022-12-31T17:16:11.655Z,6.38
2022-12-31T17:19:33.798Z,6.33
2022-12-31T17:22:50.521Z,6.28
2022-12-31T17:26:18.549Z,6.33
2022-12-31T17:29:27.363Z,6.30
2022-12-31T17:32:44.500Z,6.27
2022-12-31T17:35:53.527Z,6.27
2022-12-31T17:39:22.669Z,6.23
2022-12-31T17:42:44.539Z,6.24
2022-12-31T17:46:01.508Z,6.16
2022-12-31T17:49:10.573Z,6.21
2022-12-31T17:52:25.509Z,6.18
2022-12-31T17:55:34.442Z,6.18
2022-12-31T17:58:48.529Z,6.18
2022-12-31T18:02:07.566Z,6.20
2022-12-31T18:05:18.539Z,6.18
2022-12-31T18:08:27.567Z,6.15
2022-12-31T18:11:44.488Z,6.10
2022-12-31T18:14:59.526Z,6.08
2022-12-31T18:18:39.504Z,6.01
2022-12-31T18:21:54.519Z,5.98
2022-12-31T18:25:03.524Z,5.91
2022-12-31T18:28:15.528Z,5.86
2022-12-31T18:31:34.532Z,5.80
2022-12-31T18:34:36.651Z,5.78
2022-12-31T18:37:52.501Z,5.79
2022-12-31T18:41:07.565Z,5.81
2022-12-31T18:44:17.336Z,5.77
2022-12-31T18:47:37.431Z,5.81
2022-12-31T18:50:53.496Z,5.80
2022-12-31T18:54:10.521Z,5.84
2022-12-31T18:57:13.663Z,5.89
2022-12-31T19:00:29.507Z,5.92
2022-12-31T19:03:44.502Z,6.00
2022-12-31T19:06:47.674Z,6.06
2022-12-31T19:10:02.501Z,6.11
2022-12-31T19:13:11.509Z,6.13
2022-12-31T19:16:20.444Z,6.13
2022-12-31T19:19:42.488Z,6.15
2022-12-31T19:22:51.512Z,6.15
2022-12-31T19:26:00.485Z,6.16
2022-12-31T19:29:24.344Z,6.13
2022-12-31T19:32:32.518Z,6.05
2022-12-31T19:35:48.497Z,6.04
2022-12-31T19:39:03.516Z,6.02
2022-12-31T19:42:12.534Z,5.95
2022-12-31T19:45:32.490Z,5.77
2022-12-31T19:48:41.255Z,5.78
2022-12-31T19:51:56.506Z,5.78
2022-12-31T19:55:05.795Z,5.82
2022-12-31T19:58:15.481Z,5.87
2022-12-31T20:01:25.595Z,5.87
2022-12-31T20:04:34.499Z,5.87
2022-12-31T20:07:43.366Z,5.88
2022-12-31T20:10:59.488Z,5.76
2022-12-31T20:14:15.507Z,5.64
2022-12-31T20:17:24.312Z,5.57
2022-12-31T20:20:39.788Z,5.50
2022-12-31T20:23:56.503Z,5.39
2022-12-31T20:26:58.701Z,5.32
2022-12-31T20:30:14.505Z,5.26
2022-12-31T20:33:23.494Z,5.21
2022-12-31T20:36:38.500Z,5.12
2022-12-31T20:39:47.311Z,5.10
2022-12-31T20:42:56.488Z,5.09
2022-12-31T20:46:17.508Z,5.03
2022-12-31T20:49:52.224Z,4.99
2022-12-31T20:53:01.495Z,4.89
2022-12-31T20:56:16.473Z,4.98
2022-12-31T20:59:25.528Z,4.99
2022-12-31T21:02:42.432Z,4.93
2022-12-31T21:06:01.542Z,4.98
2022-12-31T21:09:12.505Z,4.95
2022-12-31T21:12:27.504Z,4.96
2022-12-31T21:15:36.290Z,4.96
2022-12-31T21:18:45.512Z,4.97
2022-12-31T21:22:00.486Z,4.98
2022-12-31T21:25:17.507Z,5.02
2022-12-31T21:28:26.481Z,5.07
2022-12-31T21:31:35.262Z,5.10
2022-12-31T21:35:14.709Z,5.09
2022-12-31T21:38:19.327Z,5.07
2022-12-31T21:41:34.844Z,5.07
2022-12-31T21:44:43.507Z,5.01
2022-12-31T21:47:52.180Z,5.07
2022-12-31T21:51:16.567Z,5.08
2022-12-31T21:54:25.472Z,5.13
2022-12-31T21:57:51.879Z,5.02
2022-12-31T22:01:04.567Z,5.07
2022-12-31T22:04:43.309Z,5.14
2022-12-31T22:07:48.527Z,5.17
2022-12-31T22:11:04.501Z,5.20
2022-12-31T22:14:19.489Z,5.26
2022-12-31T22:17:28.588Z,5.27
2022-12-31T22:20:43.925Z,5.26
2022-12-31T22:24:00.518Z,5.22
2022-12-31T22:27:29.564Z,5.23
2022-12-31T22:30:44.597Z,5.19
2022-12-31T22:34:01.503Z,5.17
2022-12-31T22:37:46.074Z,5.17
2022-12-31T22:40:38.485Z,5.18
2022-12-31T22:44:02.971Z,5.14
2022-12-31T22:47:12.173Z,5.12
2022-12-31T22:50:27.502Z,5.14
2022-12-31T22:53:29.531Z,5.14
2022-12-31T22:56:44.506Z,5.12
2022-12-31T22:59:53.245Z,5.09
2022-12-31T23:03:09.498Z,4.97
2022-12-31T23:06:26.511Z,4.92
2022-12-31T23:09:35.277Z,4.87
2022-12-31T23:12:50.472Z,4.82
2022-12-31T23:15:59.221Z,4.84
2022-12-31T23:19:15.456Z,4.80
2022-12-31T23:22:30.475Z,4.71
2022-12-31T23:25:57.461Z,4.65
2022-12-31T23:29:06.248Z,4.55
2022-12-31T23:32:23.452Z,4.36
2022-12-31T23:35:32.513Z,4.25
2022-12-31T23:38:47.463Z,4.33
2022-12-31T23:41:56.519Z,4.29
2022-12-31T23:45:12.494Z,4.15
2022-12-31T23:48:14.515Z,4.20
2022-12-31T23:51:30.468Z,4.17
2022-12-31T23:54:39.473Z,4.19
2022-12-31T23:57:54.466Z,4.25
